Terminal Aerodrome Forecast
Issued by NWS Hastings, NE

Home | Current Version | Previous Version | Text Only | Print | Product List | Glossary On
Versions: 1 2 3 4 5 6 7 8 9 10 11 12 13 14
000
FTUS45 KGID 292335
TAFEAR
TAF
KEAR 292335Z 3000/3024 16011KT P6SM SCT250
     FM301800 19015G22KT P6SM OVC200
     FM302300 18013KT P6SM OVC080
      AMD LTD TO CLD VIS AND WIND=

USA.gov is the U.S. government's official web portal to all federal, state and local government web resources and services.